Upstream stations:
Downstream station:
SHEF ID: BFFO2 Cimarron River near Buffalo, OK
STATION TYPE:
Regulating: Stage = 6.00, Flow = 750
PRECIP STAGE RIV-FLOW BAT-LOAD
in ft cfs volt
Ccp-Rev Ccp-Rev Ccp-Rev Ccp-Rev
(US/Central)
01/09 00:00 0.00 3.28 15 12.73
01/09 01:00 0.00 3.28 15 12.73
01/09 02:00 0.00 3.29 16 12.73
01/09 03:00 0.00 3.28 15 12.65
01/09 04:00 0.00 3.29 16 12.65
01/09 05:00 0.00 3.29 16 12.65
01/09 06:00 0.00 3.30 16 12.65
01/09 07:00 0.00 3.30 16 12.57
01/09 08:00 0.00 3.29 16 12.57
01/09 09:00 0.00 3.30 16 12.65
01/09 10:00 0.00 3.29 16 13.68
01/09 11:00 0.00 3.29 16 13.60
01/09 12:00 0.00 3.30 16 13.60
01/09 13:00 0.00 3.30 16 13.68
01/09 14:00 0.00 3.32 18 13.68
01/09 15:00 0.00 3.28 15 13.53
01/09 16:00 0.00 3.28 15 13.44
01/09 17:00 0.00 3.27 14 13.68
01/09 18:00 0.00 3.26 13 13.29
01/09 19:00 0.00 3.25 13 12.97
01/09 20:00 0.00 3.28 15 12.81
01/09 21:00 0.00 3.23 11 12.81
01/09 22:00 0.00 3.23 11 12.73
01/09 23:00 0.00 3.23 11 12.73